createdAt,value
2019-03-06T00:01:15.412Z,11.10
2019-03-06T00:03:41.288Z,15.97
2019-03-06T00:06:16.270Z,26.10
2019-03-06T00:08:34.871Z,14.77
2019-03-06T00:11:00.479Z,20.60
2019-03-06T00:13:26.070Z,16.10
2019-03-06T00:15:52.011Z,15.60
2019-03-06T00:18:18.541Z,17.60
2019-03-06T00:20:44.215Z,17.43
2019-03-06T00:23:09.810Z,20.23
2019-03-06T00:25:35.657Z,21.20
2019-03-06T00:28:01.335Z,17.70
2019-03-06T00:30:27.291Z,21.43
2019-03-06T00:32:53.286Z,20.63
2019-03-06T00:35:29.630Z,19.97
2019-03-06T00:37:55.285Z,18.93
2019-03-06T00:40:37.633Z,15.77
2019-03-06T00:43:03.411Z,16.00
2019-03-06T00:45:29.242Z,17.83
2019-03-06T00:47:54.814Z,17.67
2019-03-06T00:50:20.349Z,16.50
2019-03-06T00:52:45.967Z,18.33
2019-03-06T00:55:12.181Z,17.57
2019-03-06T00:57:37.776Z,21.03
2019-03-06T01:00:05.243Z,25.13
2019-03-06T01:02:32.730Z,17.23
2019-03-06T01:04:58.300Z,18.03
2019-03-06T01:07:23.837Z,18.83
2019-03-06T01:09:49.489Z,20.93
2019-03-06T01:12:15.208Z,16.30
2019-03-06T01:14:40.733Z,21.90
2019-03-06T01:17:06.297Z,18.17
2019-03-06T01:19:31.889Z,20.03
2019-03-06T01:21:57.435Z,12.33
2019-03-06T01:24:23.128Z,14.60
2019-03-06T01:26:49.140Z,16.27
2019-03-06T01:29:14.797Z,12.33
2019-03-06T01:31:40.384Z,13.30
2019-03-06T01:34:08.970Z,16.83
2019-03-06T01:36:36.423Z,17.50
2019-03-06T01:39:10.492Z,15.90
2019-03-06T01:41:55.798Z,17.67
2019-03-06T01:44:23.238Z,18.53
2019-03-06T01:46:48.801Z,17.40
2019-03-06T01:49:14.361Z,19.53
2019-03-06T01:51:39.933Z,15.10
2019-03-06T01:54:05.495Z,19.10
2019-03-06T01:56:31.044Z,14.00
2019-03-06T01:58:57.103Z,14.27
2019-03-06T02:01:22.659Z,19.33
2019-03-06T02:03:48.221Z,22.50
2019-03-06T02:06:14.262Z,20.60
2019-03-06T02:08:39.907Z,25.87
2019-03-06T02:11:05.562Z,21.47
2019-03-06T02:13:31.299Z,20.77
2019-03-06T02:15:56.993Z,19.10
2019-03-06T02:18:22.618Z,29.70
2019-03-06T02:20:48.152Z,17.57
2019-03-06T02:23:13.680Z,18.07
2019-03-06T02:25:39.229Z,21.60
2019-03-06T02:28:04.759Z,24.10
2019-03-06T02:30:30.328Z,28.60
2019-03-06T02:32:55.855Z,23.60
2019-03-06T02:35:22.489Z,24.23
2019-03-06T02:37:48.040Z,27.83
2019-03-06T02:40:13.670Z,23.43
2019-03-06T02:42:39.201Z,21.87
2019-03-06T02:45:06.633Z,24.27
2019-03-06T02:47:32.174Z,22.33
2019-03-06T02:49:59.686Z,25.00
2019-03-06T02:52:25.216Z,17.00
2019-03-06T02:54:50.948Z,22.23
2019-03-06T02:57:16.574Z,21.73
2019-03-06T02:59:44.080Z,20.13
2019-03-06T03:02:11.832Z,17.53
2019-03-06T03:04:45.216Z,18.97
2019-03-06T03:07:11.992Z,20.63
2019-03-06T03:09:37.620Z,22.00
2019-03-06T03:12:03.281Z,24.93
2019-03-06T03:14:28.822Z,22.53
2019-03-06T03:16:54.354Z,25.93
2019-03-06T03:19:19.897Z,22.67
2019-03-06T03:21:45.433Z,26.63
2019-03-06T03:24:11.951Z,24.03
2019-03-06T03:26:37.489Z,22.10
2019-03-06T03:29:03.048Z,24.37
2019-03-06T03:31:28.599Z,19.53
2019-03-06T03:33:54.233Z,26.07
2019-03-06T03:36:19.935Z,20.07
2019-03-06T03:38:45.464Z,23.23
2019-03-06T03:41:10.997Z,22.30
2019-03-06T03:43:36.884Z,36.63
2019-03-06T03:46:02.409Z,24.13
2019-03-06T03:48:27.960Z,26.83
2019-03-06T03:50:53.486Z,23.10
2019-03-06T03:53:19.035Z,30.13
2019-03-06T03:55:44.586Z,28.80
2019-03-06T03:58:10.123Z,29.03
2019-03-06T04:00:35.854Z,27.27
2019-03-06T04:03:01.377Z,26.80
2019-03-06T04:05:26.920Z,27.13
2019-03-06T04:07:52.468Z,28.10
2019-03-06T04:10:18.093Z,28.27
2019-03-06T04:12:44.057Z,25.83
2019-03-06T04:15:10.903Z,29.87
2019-03-06T04:17:36.731Z,29.23
2019-03-06T04:20:03.067Z,32.23
2019-03-06T04:22:28.584Z,29.63
2019-03-06T04:24:54.139Z,25.40
2019-03-06T04:27:19.655Z,25.07
2019-03-06T04:29:45.253Z,30.70
2019-03-06T04:32:10.795Z,44.60
2019-03-06T04:34:36.515Z,26.47
2019-03-06T04:37:02.078Z,27.53
2019-03-06T04:39:27.703Z,31.33
2019-03-06T04:41:53.210Z,27.43
2019-03-06T04:44:18.739Z,25.90
2019-03-06T04:46:45.582Z,22.53
2019-03-06T04:49:11.199Z,40.53
2019-03-06T04:51:36.748Z,31.30
2019-03-06T04:54:02.353Z,29.90
2019-03-06T04:56:27.914Z,26.00
2019-03-06T04:58:53.550Z,28.53
2019-03-06T05:01:19.117Z,25.50
2019-03-06T05:03:44.650Z,30.23
2019-03-06T05:06:10.276Z,25.93
2019-03-06T05:08:35.809Z,33.33
2019-03-06T05:11:01.351Z,28.03
2019-03-06T05:13:27.092Z,30.33
2019-03-06T05:15:53.878Z,26.70
2019-03-06T05:18:27.211Z,34.43
2019-03-06T05:20:52.855Z,29.47
2019-03-06T05:23:18.398Z,29.10
2019-03-06T05:25:44.032Z,25.83
2019-03-06T05:28:09.558Z,27.20
2019-03-06T05:30:35.179Z,28.03
2019-03-06T05:33:05.783Z,24.67
2019-03-06T05:35:35.959Z,27.63
2019-03-06T05:38:03.953Z,27.40
2019-03-06T05:40:29.646Z,28.77
2019-03-06T05:42:55.171Z,32.40
2019-03-06T05:45:20.689Z,22.93
2019-03-06T05:47:46.220Z,32.43
2019-03-06T05:50:12.167Z,26.47
2019-03-06T05:52:37.683Z,27.87
2019-03-06T05:55:04.023Z,24.10
2019-03-06T05:57:29.540Z,28.10
2019-03-06T05:59:55.095Z,30.77
2019-03-06T06:02:20.654Z,24.43
2019-03-06T06:04:46.195Z,29.50
2019-03-06T06:07:11.725Z,23.17
2019-03-06T06:09:37.256Z,26.97
2019-03-06T06:12:02.836Z,22.90
2019-03-06T06:14:28.416Z,20.83
2019-03-06T06:16:55.580Z,25.20
2019-03-06T06:19:21.327Z,24.43
2019-03-06T06:21:49.288Z,19.70
2019-03-06T06:24:14.848Z,23.00
2019-03-06T06:26:40.415Z,23.57
2019-03-06T06:29:05.942Z,28.67
2019-03-06T06:31:31.463Z,17.60
2019-03-06T06:33:56.990Z,26.77
2019-03-06T06:36:22.537Z,19.83
2019-03-06T06:38:48.118Z,22.70
2019-03-06T06:41:13.663Z,17.60
2019-03-06T06:43:40.391Z,19.67
2019-03-06T06:46:07.601Z,18.43
2019-03-06T06:48:33.290Z,25.53
2019-03-06T06:51:13.491Z,18.83
2019-03-06T06:53:56.099Z,17.40
2019-03-06T06:56:41.538Z,27.37
2019-03-06T06:59:09.271Z,19.30
2019-03-06T07:01:50.579Z,25.40
2019-03-06T07:04:36.749Z,30.90
2019-03-06T07:07:07.405Z,19.47
2019-03-06T07:09:51.782Z,23.20
2019-03-06T07:12:19.332Z,20.53
2019-03-06T07:14:46.992Z,24.40
2019-03-06T07:17:23.164Z,17.50
2019-03-06T07:20:07.055Z,21.60
2019-03-06T07:22:40.383Z,18.97
2019-03-06T07:25:07.978Z,19.50
2019-03-06T07:27:35.403Z,17.60
2019-03-06T07:30:08.757Z,19.37
2019-03-06T07:32:42.115Z,14.27
2019-03-06T07:35:32.720Z,17.10
2019-03-06T07:38:00.192Z,14.70
2019-03-06T07:40:26.919Z,20.67
2019-03-06T07:42:54.991Z,23.37
2019-03-06T07:45:46.941Z,16.77
2019-03-06T07:48:32.695Z,17.43
2019-03-06T07:51:06.015Z,16.23
2019-03-06T07:54:06.083Z,18.70
2019-03-06T07:56:50.492Z,16.70
2019-03-06T07:59:16.295Z,19.07
2019-03-06T08:01:46.943Z,14.50
2019-03-06T08:04:13.085Z,17.03
2019-03-06T08:06:40.492Z,17.73
2019-03-06T08:09:07.139Z,14.70
2019-03-06T08:11:36.615Z,14.93
2019-03-06T08:14:04.042Z,16.13
2019-03-06T08:16:41.376Z,15.73
2019-03-06T08:19:21.788Z,16.70
2019-03-06T08:22:01.225Z,17.70
2019-03-06T08:24:34.614Z,17.73
2019-03-06T08:27:00.140Z,15.00
2019-03-06T08:29:25.704Z,14.03
2019-03-06T08:31:52.264Z,15.97
2019-03-06T08:34:18.194Z,24.47
2019-03-06T08:36:44.125Z,18.00
2019-03-06T08:39:15.548Z,13.03
2019-03-06T08:41:41.066Z,13.67
2019-03-06T08:44:06.595Z,14.50
2019-03-06T08:46:34.043Z,13.50
2019-03-06T08:49:04.621Z,13.80
2019-03-06T08:51:47.014Z,18.63
2019-03-06T08:54:18.091Z,16.60
2019-03-06T08:56:48.515Z,15.30
2019-03-06T08:59:32.467Z,16.73
2019-03-06T09:02:01.088Z,14.40
2019-03-06T09:04:34.715Z,15.80
2019-03-06T09:07:02.157Z,17.50
2019-03-06T09:09:41.790Z,16.27
2019-03-06T09:12:24.199Z,14.80
2019-03-06T09:14:57.519Z,13.77
2019-03-06T09:17:30.999Z,16.40
2019-03-06T09:19:58.577Z,16.37
2019-03-06T09:22:30.144Z,13.37
2019-03-06T09:25:06.689Z,18.03
2019-03-06T09:27:46.352Z,14.70
2019-03-06T09:30:26.431Z,12.50
2019-03-06T09:32:59.957Z,14.83
2019-03-06T09:35:44.253Z,11.97
2019-03-06T09:38:21.320Z,13.77
2019-03-06T09:40:49.008Z,13.30
2019-03-06T09:43:22.607Z,16.00
2019-03-06T09:45:56.258Z,14.40
2019-03-06T09:48:29.653Z,18.33
2019-03-06T09:50:57.135Z,21.27
2019-03-06T09:53:24.885Z,16.67
2019-03-06T09:55:57.988Z,13.30
2019-03-06T09:58:43.700Z,15.17
2019-03-06T10:01:12.123Z,15.40
2019-03-06T10:03:39.558Z,15.57
2019-03-06T10:06:06.998Z,14.80
2019-03-06T10:08:34.637Z,15.10
2019-03-06T10:11:11.172Z,15.00
2019-03-06T10:13:42.255Z,14.20
2019-03-06T10:16:20.319Z,15.43
2019-03-06T10:18:53.452Z,17.13
2019-03-06T10:21:19.014Z,14.70
2019-03-06T10:23:44.660Z,17.43
2019-03-06T10:26:10.271Z,15.70
2019-03-06T10:28:36.665Z,21.23
2019-03-06T10:31:03.069Z,17.70
2019-03-06T10:33:28.713Z,17.70
2019-03-06T10:35:56.730Z,21.27
2019-03-06T10:38:22.523Z,20.33
2019-03-06T10:40:48.143Z,17.23
2019-03-06T10:43:13.773Z,19.53
2019-03-06T10:45:41.923Z,22.17
2019-03-06T10:48:06.815Z,17.67
2019-03-06T10:50:32.583Z,15.60
2019-03-06T10:52:58.383Z,19.30
2019-03-06T10:55:24.170Z,18.47
2019-03-06T10:57:50.335Z,22.90
2019-03-06T11:00:18.181Z,17.37
2019-03-06T11:02:43.885Z,21.20
2019-03-06T11:05:13.315Z,15.60
2019-03-06T11:07:39.465Z,16.17
2019-03-06T11:10:06.933Z,18.23
2019-03-06T11:12:32.764Z,15.30
2019-03-06T11:14:58.307Z,18.73
2019-03-06T11:17:23.889Z,15.77
2019-03-06T11:19:49.655Z,14.73
2019-03-06T11:22:15.295Z,24.50
2019-03-06T11:24:40.907Z,14.47
2019-03-06T11:27:06.766Z,17.10
2019-03-06T11:29:32.452Z,13.37
2019-03-06T11:31:58.031Z,14.97
2019-03-06T11:34:23.651Z,15.97
2019-03-06T11:36:50.410Z,14.33
2019-03-06T11:39:16.450Z,14.80
2019-03-06T11:41:42.069Z,13.20
2019-03-06T11:44:08.107Z,15.70
2019-03-06T11:46:33.620Z,14.50
2019-03-06T11:48:59.251Z,14.40
2019-03-06T11:51:25.116Z,13.70
2019-03-06T11:53:50.761Z,15.60
2019-03-06T11:56:16.294Z,13.93
2019-03-06T11:58:42.359Z,11.17
2019-03-06T12:01:10.181Z,16.23
2019-03-06T12:03:35.827Z,11.90
2019-03-06T12:06:01.605Z,15.03
2019-03-06T12:08:27.139Z,11.37
2019-03-06T12:10:52.948Z,12.77
2019-03-06T12:13:18.407Z,15.30
2019-03-06T12:15:48.427Z,11.60
2019-03-06T12:18:13.965Z,14.80
2019-03-06T12:20:39.515Z,13.77
2019-03-06T12:23:04.882Z,13.50
2019-03-06T12:25:30.495Z,13.13
2019-03-06T12:27:56.036Z,13.00
2019-03-06T12:30:22.585Z,14.80
2019-03-06T12:32:48.131Z,14.50
2019-03-06T12:35:14.703Z,13.40
2019-03-06T12:37:46.715Z,10.87
2019-03-06T12:40:13.005Z,10.77
2019-03-06T12:42:37.098Z,15.40
2019-03-06T12:45:04.535Z,13.50
2019-03-06T12:47:30.097Z,11.13
2019-03-06T12:49:55.952Z,10.73
2019-03-06T12:52:21.516Z,9.80
2019-03-06T12:54:47.193Z,9.80
2019-03-06T12:57:13.025Z,10.93
2019-03-06T12:59:38.541Z,8.70
2019-03-06T13:02:04.098Z,10.93
2019-03-06T13:04:29.631Z,11.00
2019-03-06T13:06:55.192Z,9.40
2019-03-06T13:09:20.760Z,8.97
2019-03-06T13:11:46.479Z,8.63
2019-03-06T13:14:12.199Z,8.60
2019-03-06T13:16:38.032Z,13.33
2019-03-06T13:19:03.908Z,22.63
2019-03-06T13:21:29.523Z,11.73
2019-03-06T13:23:55.075Z,9.90
2019-03-06T13:26:20.607Z,9.70
2019-03-06T13:28:46.158Z,9.97
2019-03-06T13:31:11.784Z,10.53
2019-03-06T13:33:45.188Z,12.07
2019-03-06T13:36:12.302Z,10.03
2019-03-06T13:38:38.055Z,15.60
2019-03-06T13:41:03.621Z,9.53
2019-03-06T13:43:29.488Z,9.17
2019-03-06T13:45:55.084Z,9.90
2019-03-06T13:48:20.615Z,9.83
2019-03-06T13:50:46.491Z,10.70
2019-03-06T13:53:20.072Z,8.13
2019-03-06T13:55:39.501Z,9.23
2019-03-06T13:58:05.123Z,8.90
2019-03-06T14:00:31.026Z,7.53
2019-03-06T14:02:56.675Z,11.60
2019-03-06T14:05:22.531Z,6.40
2019-03-06T14:07:55.930Z,15.13
2019-03-06T14:10:19.099Z,6.67
2019-03-06T14:12:44.924Z,6.33
2019-03-06T14:15:11.463Z,10.50
2019-03-06T14:17:37.687Z,4.30
2019-03-06T14:20:04.673Z,5.80
2019-03-06T14:22:30.312Z,7.43
2019-03-06T14:24:55.939Z,15.03
2019-03-06T14:27:21.576Z,9.70
2019-03-06T14:29:47.207Z,5.73
2019-03-06T14:32:14.881Z,9.40
2019-03-06T14:34:40.113Z,6.93
2019-03-06T14:37:05.867Z,5.47
2019-03-06T14:39:31.502Z,8.20
2019-03-06T14:41:58.198Z,6.67
2019-03-06T14:44:24.163Z,9.03
2019-03-06T14:46:49.726Z,4.10
2019-03-06T14:49:15.286Z,6.33
2019-03-06T14:51:40.951Z,14.87
2019-03-06T14:54:06.905Z,6.50
2019-03-06T14:56:32.447Z,7.63
2019-03-06T14:58:58.004Z,4.70
2019-03-06T15:01:23.553Z,8.63
2019-03-06T15:03:49.121Z,4.93
2019-03-06T15:06:14.725Z,10.83
2019-03-06T15:08:40.407Z,6.00
2019-03-06T15:11:05.959Z,7.13
2019-03-06T15:13:31.722Z,5.50
2019-03-06T15:15:57.343Z,6.13
2019-03-06T15:18:22.984Z,5.63
2019-03-06T15:20:48.731Z,6.07
2019-03-06T15:23:14.384Z,6.90
2019-03-06T15:25:39.929Z,13.43
2019-03-06T15:28:05.536Z,6.50
2019-03-06T15:30:31.105Z,6.30
2019-03-06T15:32:56.670Z,5.00
2019-03-06T15:35:22.373Z,5.20
2019-03-06T15:37:48.139Z,7.30
2019-03-06T15:40:19.442Z,6.90
2019-03-06T15:42:45.042Z,6.33
2019-03-06T15:45:11.295Z,7.43
2019-03-06T15:47:36.609Z,5.90
2019-03-06T15:50:02.547Z,5.77
2019-03-06T15:52:28.183Z,6.67
2019-03-06T15:54:53.354Z,9.50
2019-03-06T15:57:19.437Z,5.97
2019-03-06T15:59:45.046Z,7.13
2019-03-06T16:02:10.955Z,6.13
2019-03-06T16:04:36.507Z,7.53
2019-03-06T16:07:02.033Z,8.90
2019-03-06T16:09:27.579Z,11.53
2019-03-06T16:11:53.452Z,7.67
2019-03-06T16:14:19.504Z,5.20
2019-03-06T16:16:49.206Z,7.90
2019-03-06T16:19:14.819Z,4.33
2019-03-06T16:21:40.358Z,7.20
2019-03-06T16:24:05.935Z,5.23
2019-03-06T16:26:31.557Z,11.77
2019-03-06T16:28:57.080Z,5.00
2019-03-06T16:31:22.605Z,4.47
2019-03-06T16:33:48.135Z,6.10
2019-03-06T16:36:13.674Z,7.70
2019-03-06T16:38:39.311Z,5.70
2019-03-06T16:41:04.984Z,6.93
2019-03-06T16:43:30.649Z,4.67
2019-03-06T16:45:56.222Z,7.27
2019-03-06T16:48:22.026Z,7.50
2019-03-06T16:50:48.083Z,9.00
2019-03-06T16:53:13.594Z,6.23
2019-03-06T16:55:39.972Z,4.60
2019-03-06T16:58:05.775Z,9.83
2019-03-06T17:00:31.907Z,5.93
2019-03-06T17:02:58.389Z,8.90
2019-03-06T17:05:24.134Z,3.20
2019-03-06T17:07:51.031Z,7.20
2019-03-06T17:10:17.487Z,7.03
2019-03-06T17:12:43.252Z,5.33
2019-03-06T17:15:09.439Z,12.73
2019-03-06T17:17:35.056Z,4.30
2019-03-06T17:20:00.608Z,9.30
2019-03-06T17:22:26.487Z,6.20
2019-03-06T17:24:52.074Z,7.83
2019-03-06T17:27:19.058Z,5.83
2019-03-06T17:29:44.592Z,10.53
2019-03-06T17:32:10.561Z,7.50
2019-03-06T17:34:36.187Z,6.97
2019-03-06T17:37:01.931Z,5.30
2019-03-06T17:39:27.627Z,3.97
2019-03-06T17:41:53.198Z,4.20
2019-03-06T17:44:20.869Z,9.53
2019-03-06T17:46:46.828Z,6.47
2019-03-06T17:49:12.366Z,6.50
2019-03-06T17:51:38.118Z,7.70
2019-03-06T17:54:03.911Z,10.17
2019-03-06T17:56:29.756Z,14.23
2019-03-06T17:58:55.316Z,9.17
2019-03-06T18:01:21.303Z,6.67
2019-03-06T18:03:51.362Z,5.43
2019-03-06T18:06:16.379Z,11.93
2019-03-06T18:08:41.924Z,8.63
2019-03-06T18:11:08.010Z,5.37
2019-03-06T18:13:33.564Z,5.43
2019-03-06T18:15:59.582Z,5.30
2019-03-06T18:18:25.247Z,5.73
2019-03-06T18:20:50.849Z,9.80
2019-03-06T18:23:16.530Z,5.70
2019-03-06T18:25:42.197Z,9.20
2019-03-06T18:28:07.831Z,14.13
2019-03-06T18:30:33.371Z,8.43
2019-03-06T18:32:58.917Z,5.50
2019-03-06T18:35:24.540Z,9.37
2019-03-06T18:37:50.591Z,8.37
2019-03-06T18:40:18.137Z,7.13
2019-03-06T18:42:44.275Z,6.07
2019-03-06T18:45:11.044Z,8.23
2019-03-06T18:47:36.885Z,6.27
2019-03-06T18:50:03.874Z,6.03
2019-03-06T18:52:29.568Z,6.03
2019-03-06T18:54:55.481Z,10.77
2019-03-06T18:57:21.030Z,5.70
2019-03-06T18:59:46.596Z,5.60
2019-03-06T19:02:12.131Z,8.63
2019-03-06T19:04:37.668Z,7.77
2019-03-06T19:07:03.434Z,8.90
2019-03-06T19:09:29.116Z,6.87
2019-03-06T19:11:54.664Z,8.63
2019-03-06T19:14:20.300Z,6.60
2019-03-06T19:16:45.964Z,8.90
2019-03-06T19:19:11.505Z,7.60
2019-03-06T19:21:37.284Z,8.67
2019-03-06T19:24:02.907Z,13.50
2019-03-06T19:26:28.487Z,9.80
2019-03-06T19:28:54.457Z,5.77
2019-03-06T19:31:20.083Z,14.23
2019-03-06T19:33:45.737Z,10.00
2019-03-06T19:36:11.504Z,11.43
2019-03-06T19:38:37.060Z,14.27
2019-03-06T19:41:02.888Z,8.33
2019-03-06T19:43:28.536Z,9.73
2019-03-06T19:45:54.345Z,7.57
2019-03-06T19:48:19.915Z,14.50
2019-03-06T19:50:46.084Z,6.27
2019-03-06T19:53:11.646Z,6.93
2019-03-06T19:55:37.230Z,20.07
2019-03-06T19:58:04.088Z,9.23
2019-03-06T20:00:30.388Z,13.63
2019-03-06T20:02:56.319Z,7.80
2019-03-06T20:05:22.736Z,12.53
2019-03-06T20:07:48.667Z,5.37
2019-03-06T20:10:15.448Z,11.23
2019-03-06T20:12:41.481Z,13.00
2019-03-06T20:15:08.522Z,8.90
2019-03-06T20:17:34.172Z,9.07
2019-03-06T20:19:59.708Z,14.50
2019-03-06T20:22:25.251Z,7.03
2019-03-06T20:24:51.020Z,11.80
2019-03-06T20:27:16.544Z,9.20
2019-03-06T20:29:42.184Z,7.40
2019-03-06T20:32:07.861Z,7.50
2019-03-06T20:34:33.461Z,6.20
2019-03-06T20:36:59.016Z,11.73
2019-03-06T20:39:24.680Z,37.90
2019-03-06T20:41:50.203Z,7.97
2019-03-06T20:44:17.732Z,11.77
2019-03-06T20:46:43.189Z,7.07
2019-03-06T20:49:08.725Z,6.93
2019-03-06T20:51:34.255Z,7.33
2019-03-06T20:54:00.115Z,8.07
2019-03-06T20:56:25.803Z,11.23
2019-03-06T20:58:51.463Z,6.70
2019-03-06T21:01:18.264Z,7.73
2019-03-06T21:03:43.796Z,7.97
2019-03-06T21:06:09.430Z,7.77
2019-03-06T21:08:34.969Z,7.10
2019-03-06T21:11:00.610Z,6.80
2019-03-06T21:13:26.157Z,10.33
2019-03-06T21:15:51.787Z,5.90
2019-03-06T21:18:17.868Z,9.47
2019-03-06T21:20:43.402Z,10.70
2019-03-06T21:23:08.959Z,8.00
2019-03-06T21:25:34.493Z,7.27
2019-03-06T21:28:00.118Z,6.10
2019-03-06T21:30:30.283Z,7.13
2019-03-06T21:32:55.932Z,7.43
2019-03-06T21:35:21.689Z,8.80
2019-03-06T21:37:47.316Z,9.47
2019-03-06T21:40:13.407Z,15.13
2019-03-06T21:42:39.019Z,18.03
2019-03-06T21:45:06.737Z,8.00
2019-03-06T21:47:32.318Z,10.03
2019-03-06T21:49:57.891Z,20.33
2019-03-06T21:52:23.559Z,8.23
2019-03-06T21:54:49.186Z,10.20
2019-03-06T21:57:14.879Z,12.73
2019-03-06T21:59:40.854Z,5.53
2019-03-06T22:02:07.514Z,8.73
2019-03-06T22:04:33.348Z,9.37
2019-03-06T22:07:02.753Z,6.63
2019-03-06T22:09:28.761Z,10.10
2019-03-06T22:11:54.423Z,8.73
2019-03-06T22:14:21.163Z,6.13
2019-03-06T22:16:47.071Z,11.47
2019-03-06T22:19:12.678Z,9.33
2019-03-06T22:21:38.209Z,9.20
2019-03-06T22:24:04.162Z,6.67
2019-03-06T22:26:29.835Z,6.53
2019-03-06T22:28:55.551Z,6.37
2019-03-06T22:31:21.211Z,10.23
2019-03-06T22:33:46.739Z,8.70
2019-03-06T22:36:12.299Z,6.50
2019-03-06T22:38:37.920Z,8.77
2019-03-06T22:41:06.765Z,4.23
2019-03-06T22:43:32.375Z,11.27
2019-03-06T22:45:58.031Z,10.17
2019-03-06T22:48:23.592Z,8.83
2019-03-06T22:50:49.119Z,5.43
2019-03-06T22:53:14.714Z,6.17
2019-03-06T22:55:40.348Z,3.50
2019-03-06T22:58:05.912Z,4.27
2019-03-06T23:00:36.155Z,4.43
2019-03-06T23:03:03.627Z,5.47
2019-03-06T23:05:31.054Z,6.90
2019-03-06T23:07:56.621Z,5.60
2019-03-06T23:10:22.348Z,4.80
2019-03-06T23:12:48.019Z,8.87
2019-03-06T23:15:13.564Z,5.80
2019-03-06T23:17:39.183Z,6.33
2019-03-06T23:20:05.941Z,4.23
2019-03-06T23:22:31.939Z,3.57
2019-03-06T23:24:57.475Z,7.17
2019-03-06T23:27:23.012Z,7.17
2019-03-06T23:29:48.545Z,9.17
2019-03-06T23:32:14.194Z,5.80
2019-03-06T23:34:39.751Z,8.87
2019-03-06T23:37:05.317Z,3.50
2019-03-06T23:39:30.845Z,5.47
2019-03-06T23:41:56.677Z,4.80
2019-03-06T23:44:59.686Z,4.97
2019-03-06T23:47:25.310Z,5.40
2019-03-06T23:49:50.997Z,6.03
2019-03-06T23:52:18.466Z,3.67
2019-03-06T23:54:43.987Z,6.40
2019-03-06T23:57:09.555Z,4.57
2019-03-06T23:59:35.196Z,7.43
